PWSweather.com
Personal Weather Stations
Station Observations
SELKIRK1
Ontario, Selkirk, ON N0A 1P0

OntarioSelkirk, ON N0A 1P0

Lat: 42.8083652, Lon: -79.94971040000001

Elevation: 583

Station Type: Acurite 5 in 1

http://gavinsurf.com

High Low Average
Temperature 84.4°F29.1°C 67.8°F19.9°C 72.4°F22.4°C
Dew Point 73.9°F23.3°C 67.5°F19.7°C 70.1°F21.2°C
Winds 12.7 mph 20.4 kmh Calm Calm 5.0 mph S8.0 kmh S
Wind Gusts 16.1 mph25.9 kmh -- 6.0 mph9.7 kmh
Humidity 99% 69% 93%
Pressure 31.86 in1078.9 mb 31.48 in1066.0 mb -
Precipitation 0.00 in0.0 mm - -
Hour Temp Dew Point Humidity Winds Wind Gusts Pressure Precip Precip Rate Daily Precip Total
12:00 AM 68.2°F20.1°C 67.9°F19.9°C 99% Calm Calm -- 31.86 in1078.9 mb - 0.01 in0.3 mm 0.01 in0.3 mm
12:10 AM 68.2°F20.1°C 67.9°F19.9°C 99% Calm Calm -- 31.86 in1078.9 mb - 0.01 in0.3 mm 0.02 in0.5 mm
12:15 AM 68.2°F20.1°C 67.9°F19.9°C 99% Calm Calm -- 31.86 in1078.9 mb - 0.01 in0.3 mm 0.03 in0.8 mm
12:20 AM 68.2°F20.1°C 67.9°F19.9°C 99% Calm Calm -- 31.86 in1078.9 mb - 0.01 in0.3 mm 0.04 in1.0 mm
12:25 AM 68.2°F20.1°C 67.9°F19.9°C 99% Calm Calm -- 31.86 in1078.9 mb - 0.01 in0.3 mm 0.05 in1.3 mm
12:30 AM 68.4°F20.2°C 68.1°F20.1°C 99% Calm Calm -- 31.86 in1078.9 mb - 0.01 in0.3 mm 0.06 in1.5 mm
12:35 AM 68.4°F20.2°C 68.1°F20.1°C 99% Calm Calm -- 31.86 in1078.9 mb - 0.01 in0.3 mm 0.07 in1.8 mm
12:40 AM 68.4°F20.2°C 68.1°F20.1°C 99% Calm Calm -- 31.86 in1078.9 mb - 0.01 in0.3 mm 0.08 in2.0 mm
12:45 AM 68.4°F20.2°C 68.1°F20.1°C 99% Calm Calm -- 31.86 in1078.9 mb - 0.01 in0.3 mm 0.09 in2.3 mm
12:50 AM 68.4°F20.2°C 68.1°F20.1°C 99% Calm Calm -- 31.86 in1078.9 mb - 0.01 in0.3 mm 0.10 in2.5 mm
12:55 AM 68.4°F20.2°C 68.1°F20.1°C 99% Calm Calm -- 31.86 in1078.9 mb - 0.01 in0.3 mm 0.11 in2.8 mm
01:00 AM 68.4°F20.2°C 68.1°F20.1°C 99% Calm Calm -- 31.86 in1078.9 mb - 0.00 in0.0 mm 0.11 in2.8 mm
01:10 AM 68.5°F20.3°C 68.2°F20.1°C 99% Calm Calm -- 31.86 in1078.9 mb - 0.00 in0.0 mm 0.11 in2.8 mm
01:15 AM 68.6°F20.3°C 68.3°F20.2°C 99% Calm Calm -- 31.86 in1078.9 mb - 0.00 in0.0 mm 0.11 in2.8 mm
01:20 AM 68.6°F20.3°C 68.3°F20.2°C 99% Calm Calm -- 31.86 in1078.9 mb - 0.00 in0.0 mm 0.11 in2.8 mm
01:25 AM 68.6°F20.3°C 68.3°F20.2°C 99% Calm Calm -- 31.86 in1078.9 mb - 0.00 in0.0 mm 0.11 in2.8 mm
01:30 AM 68.6°F20.3°C 68.3°F20.2°C 99% Calm Calm -- 31.86 in1078.9 mb - 0.00 in0.0 mm 0.11 in2.8 mm
01:35 AM 68.6°F20.3°C 68.3°F20.2°C 99% Calm Calm -- 31.86 in1078.9 mb - 0.00 in0.0 mm 0.11 in2.8 mm
01:40 AM 68.6°F20.3°C 68.3°F20.2°C 99% Calm Calm -- 31.86 in1078.9 mb - 0.00 in0.0 mm 0.11 in2.8 mm
01:45 AM 68.6°F20.3°C 68.3°F20.2°C 99% Calm Calm -- 31.86 in1078.9 mb - 0.00 in0.0 mm 0.11 in2.8 mm
01:50 AM 68.6°F20.3°C 68.3°F20.2°C 99% Calm Calm -- 31.86 in1078.9 mb - 0.00 in0.0 mm 0.11 in2.8 mm
01:55 AM 68.6°F20.3°C 68.3°F20.2°C 99% Calm Calm -- 31.86 in1078.9 mb - 0.00 in0.0 mm 0.11 in2.8 mm
02:00 AM 68.6°F20.3°C 68.3°F20.2°C 99% Calm Calm -- 31.86 in1078.9 mb - 0.00 in0.0 mm 0.11 in2.8 mm
02:10 AM 68.6°F20.3°C 68.3°F20.2°C 99% Calm Calm -- 31.86 in1078.9 mb - 0.00 in0.0 mm 0.11 in2.8 mm
02:15 AM 68.6°F20.3°C 68.3°F20.2°C 99% Calm Calm -- 31.86 in1078.9 mb - 0.00 in0.0 mm 0.11 in2.8 mm
02:20 AM 68.6°F20.3°C 68.3°F20.2°C 99% Calm Calm -- 31.86 in1078.9 mb - 0.00 in0.0 mm 0.11 in2.8 mm
02:25 AM 68.6°F20.3°C 68.3°F20.2°C 99% Calm Calm -- 31.86 in1078.9 mb - 0.00 in0.0 mm 0.11 in2.8 mm
02:30 AM 68.6°F20.3°C 68.3°F20.2°C 99% 2.3 mph 3.7 kmh 2.3 mph3.7 kmh 31.86 in1078.9 mb - 0.00 in0.0 mm 0.11 in2.8 mm
02:35 AM 68.6°F20.3°C 68.3°F20.2°C 99% 1.2 mph N1.9 kmh N 1.2 mph1.9 kmh 31.86 in1078.9 mb - 0.00 in0.0 mm 0.11 in2.8 mm
02:40 AM 68.6°F20.3°C 68.3°F20.2°C 99% 1.2 mph N1.9 kmh N 2.3 mph3.7 kmh 31.86 in1078.9 mb - 0.00 in0.0 mm 0.11 in2.8 mm
02:45 AM 68.6°F20.3°C 68.3°F20.2°C 99% 1.2 mph N1.9 kmh N 1.2 mph1.9 kmh 31.86 in1078.9 mb - 0.00 in0.0 mm 0.11 in2.8 mm
02:50 AM 68.6°F20.3°C 68.3°F20.2°C 99% Calm Calm -- 31.86 in1078.9 mb - 0.00 in0.0 mm 0.11 in2.8 mm
02:55 AM 68.6°F20.3°C 68.3°F20.2°C 99% Calm Calm -- 31.86 in1078.9 mb - 0.00 in0.0 mm 0.11 in2.8 mm
03:00 AM 68.6°F20.3°C 68.3°F20.2°C 99% Calm Calm -- 31.86 in1078.9 mb - 0.00 in0.0 mm 0.11 in2.8 mm
03:10 AM 68.6°F20.3°C 68.3°F20.2°C 99% 1.2 mph NE1.9 kmh NE 1.2 mph1.9 kmh 31.86 in1078.9 mb - 0.00 in0.0 mm 0.11 in2.8 mm
03:15 AM 68.6°F20.3°C 68.3°F20.2°C 99% 2.3 mph N3.7 kmh N 2.3 mph3.7 kmh 31.86 in1078.9 mb - 0.00 in0.0 mm 0.11 in2.8 mm
03:20 AM 68.6°F20.3°C 68.3°F20.2°C 99% 2.3 mph N3.7 kmh N 2.3 mph3.7 kmh 31.86 in1078.9 mb - 0.00 in0.0 mm 0.11 in2.8 mm
03:25 AM 68.6°F20.3°C 68.3°F20.2°C 99% Calm Calm -- 31.86 in1078.9 mb - 0.00 in0.0 mm 0.11 in2.8 mm
03:30 AM 68.6°F20.3°C 68.3°F20.2°C 99% 1.2 mph NNE1.9 kmh NNE 1.2 mph1.9 kmh 31.86 in1078.9 mb - 0.00 in0.0 mm 0.11 in2.8 mm
03:35 AM 68.6°F20.3°C 68.3°F20.2°C 99% Calm Calm -- 31.86 in1078.9 mb - 0.00 in0.0 mm 0.11 in2.8 mm
03:40 AM 68.6°F20.3°C 68.3°F20.2°C 99% Calm Calm -- 31.86 in1078.9 mb - 0.00 in0.0 mm 0.11 in2.8 mm
03:45 AM 68.4°F20.2°C 68.1°F20.1°C 99% Calm Calm -- 31.86 in1078.9 mb - 0.00 in0.0 mm 0.11 in2.8 mm
03:50 AM 68.3°F20.2°C 68.0°F20.0°C 99% Calm Calm -- 31.86 in1078.9 mb - 0.00 in0.0 mm 0.11 in2.8 mm
03:55 AM 68.2°F20.1°C 67.9°F19.9°C 99% 2.3 mph N3.7 kmh N 2.3 mph3.7 kmh 31.86 in1078.9 mb - 0.00 in0.0 mm 0.11 in2.8 mm
04:00 AM 68.2°F20.1°C 67.9°F19.9°C 99% 2.3 mph N3.7 kmh N 3.5 mph5.6 kmh 31.86 in1078.9 mb - 0.00 in0.0 mm 0.11 in2.8 mm
04:10 AM 68.2°F20.1°C 67.9°F19.9°C 99% 3.5 mph N5.6 kmh N 3.5 mph5.6 kmh 31.86 in1078.9 mb - 0.00 in0.0 mm 0.11 in2.8 mm
04:15 AM 68.4°F20.2°C 68.1°F20.1°C 99% 2.3 mph NNE3.7 kmh NNE 2.3 mph3.7 kmh 31.86 in1078.9 mb - 0.00 in0.0 mm 0.11 in2.8 mm
04:20 AM 68.4°F20.2°C 68.1°F20.1°C 99% Calm Calm 1.2 mph1.9 kmh 31.86 in1078.9 mb - 0.00 in0.0 mm 0.11 in2.8 mm
04:25 AM 68.4°F20.2°C 68.1°F20.1°C 99% 2.3 mph NNE3.7 kmh NNE 3.5 mph5.6 kmh 31.86 in1078.9 mb - 0.00 in0.0 mm 0.11 in2.8 mm
04:30 AM 68.6°F20.3°C 68.3°F20.2°C 99% 3.5 mph NNE5.6 kmh NNE 4.6 mph7.4 kmh 31.86 in1078.9 mb - 0.00 in0.0 mm 0.11 in2.8 mm
04:35 AM 68.6°F20.3°C 68.3°F20.2°C 99% 3.5 mph NNE5.6 kmh NNE 3.5 mph5.6 kmh 31.86 in1078.9 mb - 0.00 in0.0 mm 0.11 in2.8 mm
04:40 AM 68.6°F20.3°C 68.3°F20.2°C 99% 3.5 mph NNW5.6 kmh NNW 4.6 mph7.4 kmh 31.86 in1078.9 mb - 0.00 in0.0 mm 0.11 in2.8 mm
04:45 AM 68.6°F20.3°C 68.3°F20.2°C 99% 4.6 mph N7.4 kmh N 5.8 mph9.3 kmh 31.86 in1078.9 mb - 0.00 in0.0 mm 0.11 in2.8 mm
04:50 AM 68.6°F20.3°C 68.3°F20.2°C 99% 5.8 mph N9.3 kmh N 6.9 mph11.1 kmh 31.86 in1078.9 mb - 0.00 in0.0 mm 0.11 in2.8 mm
04:55 AM 68.6°F20.3°C 68.3°F20.2°C 99% 6.9 mph N11.1 kmh N 9.2 mph14.8 kmh 31.86 in1078.9 mb - 0.00 in0.0 mm 0.11 in2.8 mm
05:00 AM 68.6°F20.3°C 68.3°F20.2°C 99% 8.1 mph N13.0 kmh N 9.2 mph14.8 kmh 31.86 in1078.9 mb - 0.00 in0.0 mm 0.11 in2.8 mm
05:10 AM 68.6°F20.3°C 68.3°F20.2°C 99% 5.8 mph NNE9.3 kmh NNE 5.8 mph9.3 kmh 31.86 in1078.9 mb - 0.00 in0.0 mm 0.11 in2.8 mm
05:15 AM 68.6°F20.3°C 68.3°F20.2°C 99% 5.8 mph N9.3 kmh N 6.9 mph11.1 kmh 31.86 in1078.9 mb - 0.00 in0.0 mm 0.11 in2.8 mm
05:20 AM 68.6°F20.3°C 68.3°F20.2°C 99% 5.8 mph N9.3 kmh N 6.9 mph11.1 kmh 31.86 in1078.9 mb - 0.00 in0.0 mm 0.11 in2.8 mm
05:25 AM 68.4°F20.2°C 68.1°F20.1°C 99% 4.6 mph N7.4 kmh N 4.6 mph7.4 kmh 31.86 in1078.9 mb - 0.00 in0.0 mm 0.11 in2.8 mm
05:30 AM 68.4°F20.2°C 68.1°F20.1°C 99% 3.5 mph N5.6 kmh N 4.6 mph7.4 kmh 31.86 in1078.9 mb - 0.00 in0.0 mm 0.11 in2.8 mm
05:35 AM 68.4°F20.2°C 68.1°F20.1°C 99% 4.6 mph NNE7.4 kmh NNE 4.6 mph7.4 kmh 31.86 in1078.9 mb - 0.00 in0.0 mm 0.11 in2.8 mm
05:40 AM 68.2°F20.1°C 67.9°F19.9°C 99% 5.8 mph N9.3 kmh N 5.8 mph9.3 kmh 31.86 in1078.9 mb - 0.00 in0.0 mm 0.11 in2.8 mm
05:45 AM 68.2°F20.1°C 67.9°F19.9°C 99% 5.8 mph NNE9.3 kmh NNE 6.9 mph11.1 kmh 31.86 in1078.9 mb - 0.00 in0.0 mm 0.11 in2.8 mm
05:50 AM 68.2°F20.1°C 67.9°F19.9°C 99% 5.8 mph N9.3 kmh N 6.9 mph11.1 kmh 31.86 in1078.9 mb - 0.00 in0.0 mm 0.11 in2.8 mm
05:55 AM 68.2°F20.1°C 67.9°F19.9°C 99% 4.6 mph N7.4 kmh N 5.8 mph9.3 kmh 31.86 in1078.9 mb - 0.00 in0.0 mm 0.11 in2.8 mm
06:00 AM 68.2°F20.1°C 67.9°F19.9°C 99% 4.6 mph N7.4 kmh N 4.6 mph7.4 kmh 31.86 in1078.9 mb - 0.00 in0.0 mm 0.11 in2.8 mm
06:10 AM 68.2°F20.1°C 67.9°F19.9°C 99% 5.8 mph NNE9.3 kmh NNE 5.8 mph9.3 kmh 31.86 in1078.9 mb - 0.00 in0.0 mm 0.11 in2.8 mm
06:15 AM 68.2°F20.1°C 67.9°F19.9°C 99% 5.8 mph NW9.3 kmh NW 6.9 mph11.1 kmh 31.86 in1078.9 mb - 0.00 in0.0 mm 0.11 in2.8 mm
06:20 AM 68.0°F20.0°C 67.7°F19.8°C 99% 5.8 mph NNW9.3 kmh NNW 6.9 mph11.1 kmh 31.86 in1078.9 mb - 0.00 in0.0 mm 0.11 in2.8 mm
06:25 AM 68.0°F20.0°C 67.7°F19.8°C 99% 6.9 mph N11.1 kmh N 6.9 mph11.1 kmh 31.86 in1078.9 mb - 0.00 in0.0 mm 0.11 in2.8 mm
06:30 AM 68.0°F20.0°C 67.7°F19.8°C 99% 5.8 mph N9.3 kmh N 6.9 mph11.1 kmh 31.86 in1078.9 mb - 0.00 in0.0 mm 0.11 in2.8 mm
06:35 AM 68.0°F20.0°C 67.7°F19.8°C 99% 3.5 mph N5.6 kmh N 4.6 mph7.4 kmh 31.86 in1078.9 mb - 0.00 in0.0 mm 0.11 in2.8 mm
06:40 AM 68.0°F20.0°C 67.7°F19.8°C 99% 3.5 mph N5.6 kmh N 4.6 mph7.4 kmh 31.86 in1078.9 mb - 0.00 in0.0 mm 0.11 in2.8 mm
06:45 AM 68.0°F20.0°C 67.7°F19.8°C 99% 3.5 mph NNW5.6 kmh NNW 3.5 mph5.6 kmh 31.86 in1078.9 mb - 0.00 in0.0 mm 0.11 in2.8 mm
06:50 AM 68.0°F20.0°C 67.7°F19.8°C 99% 3.5 mph N5.6 kmh N 4.6 mph7.4 kmh 31.86 in1078.9 mb - 0.00 in0.0 mm 0.11 in2.8 mm
06:55 AM 68.2°F20.1°C 67.9°F19.9°C 99% 4.6 mph N7.4 kmh N 5.8 mph9.3 kmh 31.86 in1078.9 mb - 0.00 in0.0 mm 0.11 in2.8 mm
07:00 AM 68.2°F20.1°C 67.9°F19.9°C 99% 3.5 mph N5.6 kmh N 4.6 mph7.4 kmh 31.86 in1078.9 mb - 0.00 in0.0 mm 0.11 in2.8 mm
07:10 AM 68.4°F20.2°C 68.1°F20.1°C 99% 3.5 mph N5.6 kmh N 5.8 mph9.3 kmh 31.86 in1078.9 mb - 0.00 in0.0 mm 0.11 in2.8 mm
07:15 AM 68.5°F20.3°C 68.2°F20.1°C 99% 3.5 mph N5.6 kmh N 3.5 mph5.6 kmh 31.86 in1078.9 mb - 0.00 in0.0 mm 0.11 in2.8 mm
07:20 AM 68.6°F20.3°C 68.3°F20.2°C 99% 4.6 mph N7.4 kmh N 5.8 mph9.3 kmh 31.86 in1078.9 mb - 0.00 in0.0 mm 0.11 in2.8 mm
07:25 AM 68.6°F20.3°C 68.3°F20.2°C 99% 5.8 mph N9.3 kmh N 6.9 mph11.1 kmh 31.86 in1078.9 mb - 0.00 in0.0 mm 0.11 in2.8 mm
07:30 AM 68.6°F20.3°C 68.3°F20.2°C 99% 5.8 mph N9.3 kmh N 5.8 mph9.3 kmh 31.86 in1078.9 mb - 0.00 in0.0 mm 0.11 in2.8 mm
07:35 AM 68.9°F20.5°C 68.6°F20.3°C 99% 4.6 mph N7.4 kmh N 5.8 mph9.3 kmh 31.86 in1078.9 mb - 0.00 in0.0 mm 0.11 in2.8 mm
07:40 AM 68.9°F20.5°C 68.6°F20.3°C 99% 4.6 mph N7.4 kmh N 4.6 mph7.4 kmh 31.86 in1078.9 mb - 0.00 in0.0 mm 0.11 in2.8 mm
07:45 AM 69.2°F20.7°C 69.0°F20.6°C 99% 4.6 mph NE7.4 kmh NE 6.9 mph11.1 kmh 31.86 in1078.9 mb - 0.00 in0.0 mm 0.11 in2.8 mm
07:50 AM 69.3°F20.7°C 69.0°F20.6°C 99% 5.8 mph NNE9.3 kmh NNE 5.8 mph9.3 kmh 31.86 in1078.9 mb - 0.00 in0.0 mm 0.11 in2.8 mm
07:55 AM 69.6°F20.9°C 69.3°F20.7°C 99% 4.6 mph NNE7.4 kmh NNE 5.8 mph9.3 kmh 31.86 in1078.9 mb - 0.00 in0.0 mm 0.11 in2.8 mm
08:00 AM 69.6°F20.9°C 69.3°F20.7°C 99% 4.6 mph N7.4 kmh N 5.8 mph9.3 kmh 31.86 in1078.9 mb - 0.00 in0.0 mm 0.11 in2.8 mm
08:10 AM 69.9°F21.1°C 69.6°F20.9°C 99% 3.5 mph N5.6 kmh N 5.8 mph9.3 kmh 31.86 in1078.9 mb - 0.00 in0.0 mm 0.11 in2.8 mm
08:15 AM 70.5°F21.4°C 70.2°F21.2°C 99% 4.6 mph N7.4 kmh N 8.1 mph13.0 kmh 31.86 in1078.9 mb - 0.00 in0.0 mm 0.11 in2.8 mm
08:20 AM 70.5°F21.4°C 70.2°F21.2°C 99% 8.1 mph N13.0 kmh N 8.1 mph13.0 kmh 31.86 in1078.9 mb - 0.00 in0.0 mm 0.11 in2.8 mm
08:25 AM 70.7°F21.5°C 70.4°F21.3°C 99% 6.9 mph NNE11.1 kmh NNE 5.8 mph9.3 kmh 31.86 in1078.9 mb - 0.00 in0.0 mm 0.11 in2.8 mm
08:30 AM 70.7°F21.5°C 70.4°F21.3°C 99% 6.9 mph N11.1 kmh N 8.1 mph13.0 kmh 31.86 in1078.9 mb - 0.00 in0.0 mm 0.11 in2.8 mm
08:35 AM 70.7°F21.5°C 70.4°F21.3°C 99% 4.6 mph N7.4 kmh N 5.8 mph9.3 kmh 31.86 in1078.9 mb - 0.00 in0.0 mm 0.11 in2.8 mm
08:40 AM 70.7°F21.5°C 70.4°F21.3°C 99% 5.8 mph N9.3 kmh N 5.8 mph9.3 kmh 31.86 in1078.9 mb - 0.00 in0.0 mm 0.11 in2.8 mm
08:45 AM 71.3°F21.8°C 71.0°F21.7°C 99% 5.8 mph N9.3 kmh N 6.9 mph11.1 kmh 31.86 in1078.9 mb - 0.00 in0.0 mm 0.11 in2.8 mm
08:50 AM 71.3°F21.8°C 71.0°F21.7°C 99% 5.8 mph NW9.3 kmh NW 5.8 mph9.3 kmh 31.86 in1078.9 mb - 0.00 in0.0 mm 0.11 in2.8 mm
08:55 AM 71.6°F22.0°C 71.3°F21.8°C 99% 6.9 mph N11.1 kmh N 10.4 mph16.7 kmh 31.86 in1078.9 mb - 0.00 in0.0 mm 0.11 in2.8 mm
09:00 AM 71.8°F22.1°C 71.2°F21.8°C 98% 8.1 mph NNW13.0 kmh NNW 9.2 mph14.8 kmh 31.86 in1078.9 mb - 0.00 in0.0 mm 0.11 in2.8 mm
09:10 AM 72.2°F22.3°C 71.0°F21.7°C 96% 8.1 mph N13.0 kmh N 9.2 mph14.8 kmh 31.86 in1078.9 mb - 0.00 in0.0 mm 0.11 in2.8 mm
09:15 AM 72.2°F22.3°C 71.3°F21.8°C 97% 9.2 mph NNW14.8 kmh NNW 10.4 mph16.7 kmh 31.86 in1078.9 mb - 0.00 in0.0 mm 0.11 in2.8 mm
09:20 AM 72.7°F22.6°C 71.1°F21.7°C 95% 4.6 mph N7.4 kmh N 10.4 mph16.7 kmh 31.86 in1078.9 mb - 0.00 in0.0 mm 0.11 in2.8 mm
09:25 AM 72.9°F22.7°C 71.4°F21.9°C 95% 6.9 mph N11.1 kmh N 5.8 mph9.3 kmh 31.86 in1078.9 mb - 0.00 in0.0 mm 0.11 in2.8 mm
09:30 AM 73.8°F23.2°C 71.9°F22.2°C 94% 5.8 mph N9.3 kmh N 5.8 mph9.3 kmh 31.86 in1078.9 mb - 0.00 in0.0 mm 0.11 in2.8 mm
09:35 AM 74.4°F23.6°C 71.9°F22.2°C 92% 6.9 mph N11.1 kmh N 8.1 mph13.0 kmh 31.86 in1078.9 mb - 0.00 in0.0 mm 0.11 in2.8 mm
09:40 AM 74.5°F23.6°C 71.7°F22.1°C 91% 5.8 mph NW9.3 kmh NW 5.8 mph9.3 kmh 31.86 in1078.9 mb - 0.00 in0.0 mm 0.11 in2.8 mm
09:45 AM 75.4°F24.1°C 71.9°F22.2°C 89% 8.1 mph N13.0 kmh N 12.7 mph20.4 kmh 31.86 in1078.9 mb - 0.00 in0.0 mm 0.11 in2.8 mm
09:50 AM 74.7°F23.7°C 71.2°F21.8°C 89% 9.2 mph NNE14.8 kmh NNE 10.4 mph16.7 kmh 31.86 in1078.9 mb - 0.00 in0.0 mm 0.11 in2.8 mm
09:55 AM 74.0°F23.3°C 70.9°F21.6°C 90% 6.9 mph N11.1 kmh N 9.2 mph14.8 kmh 31.86 in1078.9 mb - 0.00 in0.0 mm 0.11 in2.8 mm
10:00 AM 73.8°F23.2°C 70.7°F21.5°C 90% 8.1 mph NNW13.0 kmh NNW 8.1 mph13.0 kmh 31.86 in1078.9 mb - 0.00 in0.0 mm 0.11 in2.8 mm
10:10 AM 74.9°F23.8°C 70.8°F21.6°C 87% 11.5 mph N18.5 kmh N 15.0 mph24.1 kmh 31.86 in1078.9 mb - 0.00 in0.0 mm 0.11 in2.8 mm
10:15 AM 75.2°F24.0°C 71.0°F21.7°C 87% 10.4 mph NNE16.7 kmh NNE 12.7 mph20.4 kmh 31.86 in1078.9 mb - 0.00 in0.0 mm 0.11 in2.8 mm
10:20 AM 75.4°F24.1°C 70.9°F21.6°C 86% 11.5 mph N18.5 kmh N 12.7 mph20.4 kmh 31.86 in1078.9 mb - 0.00 in0.0 mm 0.11 in2.8 mm
10:25 AM 75.9°F24.4°C 71.4°F21.9°C 86% 9.2 mph NNE14.8 kmh NNE 11.5 mph18.5 kmh 31.86 in1078.9 mb - 0.00 in0.0 mm 0.11 in2.8 mm
10:30 AM 74.5°F23.6°C 69.7°F20.9°C 85% 6.9 mph NW11.1 kmh NW 9.2 mph14.8 kmh 31.86 in1078.9 mb - 0.00 in0.0 mm 0.11 in2.8 mm
10:35 AM 75.9°F24.4°C 70.3°F21.3°C 83% 8.1 mph NW13.0 kmh NW 10.4 mph16.7 kmh 31.86 in1078.9 mb - 0.00 in0.0 mm 0.11 in2.8 mm
10:40 AM 76.5°F24.7°C 71.3°F21.8°C 84% 6.9 mph NW11.1 kmh NW 8.1 mph13.0 kmh 31.86 in1078.9 mb - 0.00 in0.0 mm 0.11 in2.8 mm
10:45 AM 76.3°F24.6°C 70.7°F21.5°C 83% 9.2 mph N14.8 kmh N 11.5 mph18.5 kmh 31.86 in1078.9 mb - 0.00 in0.0 mm 0.11 in2.8 mm
10:50 AM 76.7°F24.8°C 70.4°F21.3°C 81% 11.5 mph NNE18.5 kmh NNE 13.8 mph22.2 kmh 31.86 in1078.9 mb - 0.00 in0.0 mm 0.11 in2.8 mm
10:55 AM 76.8°F24.9°C 71.2°F21.8°C 83% 10.4 mph N16.7 kmh N 11.5 mph18.5 kmh 31.86 in1078.9 mb - 0.00 in0.0 mm 0.11 in2.8 mm
11:00 AM 75.5°F24.2°C 69.6°F20.9°C 82% 11.5 mph N18.5 kmh N 11.5 mph18.5 kmh 31.86 in1078.9 mb - 0.00 in0.0 mm 0.11 in2.8 mm
11:10 AM 76.6°F24.8°C 70.7°F21.5°C 82% 9.2 mph 14.8 kmh 10.4 mph16.7 kmh 31.86 in1078.9 mb - 0.00 in0.0 mm 0.11 in2.8 mm
11:15 AM 76.3°F24.6°C 70.1°F21.2°C 81% 12.7 mph N20.4 kmh N 13.8 mph22.2 kmh 31.86 in1078.9 mb - 0.00 in0.0 mm 0.11 in2.8 mm
11:20 AM 75.5°F24.2°C 70.0°F21.1°C 83% 9.2 mph NW14.8 kmh NW 10.4 mph16.7 kmh 31.86 in1078.9 mb - 0.00 in0.0 mm 0.11 in2.8 mm
11:25 AM 76.9°F24.9°C 70.6°F21.4°C 81% 8.1 mph N13.0 kmh N 10.4 mph16.7 kmh 31.86 in1078.9 mb - 0.00 in0.0 mm 0.11 in2.8 mm
11:30 AM 78.3°F25.7°C 72.0°F22.2°C 81% 8.1 mph N13.0 kmh N 16.1 mph25.9 kmh 31.86 in1078.9 mb - 0.00 in0.0 mm 0.11 in2.8 mm
11:35 AM 77.3°F25.2°C 71.0°F21.7°C 81% 8.1 mph NW13.0 kmh NW 9.2 mph14.8 kmh 31.86 in1078.9 mb - 0.00 in0.0 mm 0.11 in2.8 mm
11:40 AM 76.1°F24.5°C 69.8°F21.0°C 81% 10.4 mph N16.7 kmh N 10.4 mph16.7 kmh 31.86 in1078.9 mb - 0.00 in0.0 mm 0.11 in2.8 mm
11:45 AM 76.1°F24.5°C 69.8°F21.0°C 81% 10.4 mph N16.7 kmh N 10.4 mph16.7 kmh 31.86 in1078.9 mb - 0.00 in0.0 mm 0.11 in2.8 mm
11:50 AM 78.1°F25.6°C 71.0°F21.7°C 79% 6.9 mph N11.1 kmh N 8.1 mph13.0 kmh 31.86 in1078.9 mb - 0.00 in0.0 mm 0.11 in2.8 mm
11:55 AM 77.9°F25.5°C 70.8°F21.6°C 79% 11.5 mph NNE18.5 kmh NNE 15.0 mph24.1 kmh 31.86 in1078.9 mb - 0.00 in0.0 mm 0.11 in2.8 mm
12:00 PM 77.6°F25.3°C 71.0°F21.7°C 80% 8.1 mph N13.0 kmh N 10.4 mph16.7 kmh 31.86 in1078.9 mb - 0.00 in0.0 mm 0.11 in2.8 mm
12:10 PM 78.8°F26.0°C 71.7°F22.1°C 79% 10.4 mph N16.7 kmh N 11.5 mph18.5 kmh 31.86 in1078.9 mb - 0.00 in0.0 mm 0.11 in2.8 mm
12:15 PM 78.4°F25.8°C 71.7°F22.1°C 80% 8.1 mph N13.0 kmh N 9.2 mph14.8 kmh 31.86 in1078.9 mb - 0.00 in0.0 mm 0.11 in2.8 mm
12:20 PM 79.7°F26.5°C 72.6°F22.6°C 79% 5.8 mph N9.3 kmh N 6.9 mph11.1 kmh 31.86 in1078.9 mb - 0.00 in0.0 mm 0.11 in2.8 mm
12:25 PM 79.3°F26.3°C 71.0°F21.7°C 76% 6.9 mph NNE11.1 kmh NNE 5.8 mph9.3 kmh 31.86 in1078.9 mb - 0.00 in0.0 mm 0.11 in2.8 mm
12:30 PM 80.0°F26.7°C 72.5°F22.5°C 78% 9.2 mph N14.8 kmh N 11.5 mph18.5 kmh 31.86 in1078.9 mb - 0.00 in0.0 mm 0.11 in2.8 mm
12:35 PM 79.9°F26.6°C 72.4°F22.4°C 78% 6.9 mph N11.1 kmh N 10.4 mph16.7 kmh 31.86 in1078.9 mb - 0.00 in0.0 mm 0.11 in2.8 mm
12:40 PM 79.7°F26.5°C 71.8°F22.1°C 77% 4.6 mph NW7.4 kmh NW 4.6 mph7.4 kmh 31.86 in1078.9 mb - 0.00 in0.0 mm 0.11 in2.8 mm
12:45 PM 81.1°F27.3°C 72.8°F22.7°C 76% 4.6 mph N7.4 kmh N 11.5 mph18.5 kmh 31.86 in1078.9 mb - 0.00 in0.0 mm 0.11 in2.8 mm
12:50 PM 80.2°F26.8°C 72.0°F22.2°C 76% 5.8 mph N9.3 kmh N 9.2 mph14.8 kmh 31.86 in1078.9 mb - 0.00 in0.0 mm 0.11 in2.8 mm
12:55 PM 80.2°F26.8°C 71.5°F21.9°C 75% 5.8 mph N9.3 kmh N 6.9 mph11.1 kmh 31.86 in1078.9 mb - 0.00 in0.0 mm 0.11 in2.8 mm
01:00 PM 79.5°F26.4°C 71.3°F21.8°C 76% 2.3 mph NW3.7 kmh NW 3.5 mph5.6 kmh 31.86 in1078.9 mb - 0.00 in0.0 mm 0.11 in2.8 mm
01:10 PM 81.7°F27.6°C 72.6°F22.6°C 74% 4.6 mph N7.4 kmh N 5.8 mph9.3 kmh 31.86 in1078.9 mb - 0.00 in0.0 mm 0.11 in2.8 mm
01:15 PM 83.0°F28.3°C 73.4°F23.0°C 73% 3.5 mph ENE5.6 kmh ENE 3.5 mph5.6 kmh 31.86 in1078.9 mb - 0.00 in0.0 mm 0.11 in2.8 mm
01:20 PM 82.2°F27.9°C 72.6°F22.6°C 73% 3.5 mph NNW5.6 kmh NNW 3.5 mph5.6 kmh 31.86 in1078.9 mb - 0.00 in0.0 mm 0.11 in2.8 mm
01:25 PM 82.2°F27.9°C 72.2°F22.3°C 72% 2.3 mph NNE3.7 kmh NNE 4.6 mph7.4 kmh 31.86 in1078.9 mb - 0.00 in0.0 mm 0.11 in2.8 mm
01:30 PM 82.8°F28.2°C 72.5°F22.5°C 71% 3.5 mph NE5.6 kmh NE 4.6 mph7.4 kmh 31.86 in1078.9 mb - 0.00 in0.0 mm 0.11 in2.8 mm
01:35 PM 83.5°F28.6°C 72.2°F22.3°C 69% 5.8 mph NNW9.3 kmh NNW 9.2 mph14.8 kmh 31.86 in1078.9 mb - 0.00 in0.0 mm 0.11 in2.8 mm
01:40 PM 83.3°F28.5°C 72.1°F22.3°C 69% 8.1 mph N13.0 kmh N 10.4 mph16.7 kmh 31.86 in1078.9 mb - 0.00 in0.0 mm 0.11 in2.8 mm
01:45 PM 83.7°F28.7°C 72.9°F22.7°C 70% 2.3 mph ENE3.7 kmh ENE 3.5 mph5.6 kmh 31.86 in1078.9 mb - 0.00 in0.0 mm 0.11 in2.8 mm
01:50 PM 84.4°F29.1°C 73.9°F23.3°C 71% 3.5 mph WSW5.6 kmh WSW 4.6 mph7.4 kmh 31.86 in1078.9 mb - 0.00 in0.0 mm 0.11 in2.8 mm
01:55 PM 82.3°F27.9°C 73.6°F23.1°C 75% 3.5 mph SE5.6 kmh SE 4.6 mph7.4 kmh 31.86 in1078.9 mb - 0.00 in0.0 mm 0.11 in2.8 mm
02:00 PM 81.0°F27.2°C 73.5°F23.1°C 78% 3.5 mph SW5.6 kmh SW 3.5 mph5.6 kmh 31.86 in1078.9 mb - 0.00 in0.0 mm 0.11 in2.8 mm
02:10 PM 80.9°F27.2°C 73.4°F23.0°C 78% 3.5 mph SW5.6 kmh SW 4.6 mph7.4 kmh 31.86 in1078.9 mb - 0.00 in0.0 mm 0.11 in2.8 mm
02:15 PM 80.3°F26.8°C 73.9°F23.3°C 81% 3.5 mph S5.6 kmh S 4.6 mph7.4 kmh 31.86 in1078.9 mb - 0.00 in0.0 mm 0.11 in2.8 mm
02:20 PM 79.1°F26.2°C 73.1°F22.8°C 82% 4.6 mph S7.4 kmh S 5.8 mph9.3 kmh 31.86 in1078.9 mb - 0.00 in0.0 mm 0.11 in2.8 mm
02:25 PM 79.1°F26.2°C 73.2°F22.9°C 82% 4.6 mph SSW7.4 kmh SSW 6.9 mph11.1 kmh 31.86 in1078.9 mb - 0.00 in0.0 mm 0.11 in2.8 mm
02:30 PM 77.0°F25.0°C 72.1°F22.3°C 85% 6.9 mph SW11.1 kmh SW 8.1 mph13.0 kmh 31.86 in1078.9 mb - 0.00 in0.0 mm 0.11 in2.8 mm
02:35 PM 76.5°F24.7°C 72.3°F22.4°C 87% 6.9 mph SSW11.1 kmh SSW 8.1 mph13.0 kmh 31.86 in1078.9 mb - 0.00 in0.0 mm 0.11 in2.8 mm
02:40 PM 76.8°F24.9°C 72.3°F22.4°C 86% 8.1 mph SW13.0 kmh SW 8.1 mph13.0 kmh 31.85 in1078.6 mb - 0.00 in0.0 mm 0.11 in2.8 mm
02:45 PM 76.8°F24.9°C 72.0°F22.2°C 85% 6.9 mph SSW11.1 kmh SSW 6.9 mph11.1 kmh 31.74 in1074.8 mb - 0.00 in0.0 mm 0.11 in2.8 mm
02:50 PM 76.3°F24.6°C 71.4°F21.9°C 85% 8.1 mph SSW13.0 kmh SSW 8.1 mph13.0 kmh 31.74 in1074.8 mb - 0.00 in0.0 mm 0.11 in2.8 mm
02:55 PM 77.7°F25.4°C 72.5°F22.5°C 84% 5.8 mph S9.3 kmh S 6.9 mph11.1 kmh 31.59 in1069.8 mb - 0.00 in0.0 mm 0.11 in2.8 mm
03:00 PM 77.7°F25.4°C 73.1°F22.8°C 86% 6.9 mph SSW11.1 kmh SSW 6.9 mph11.1 kmh 31.59 in1069.8 mb - 0.00 in0.0 mm 0.11 in2.8 mm
03:10 PM 77.1°F25.1°C 72.6°F22.6°C 86% 9.2 mph SW14.8 kmh SW 10.4 mph16.7 kmh 31.48 in1066.0 mb - 0.00 in0.0 mm 0.11 in2.8 mm
03:15 PM 76.8°F24.9°C 72.3°F22.4°C 86% 9.2 mph SW14.8 kmh SW 10.4 mph16.7 kmh 31.48 in1066.0 mb - 0.00 in0.0 mm 0.11 in2.8 mm
03:20 PM 76.6°F24.8°C 72.4°F22.4°C 87% 10.4 mph WSW16.7 kmh WSW 12.7 mph20.4 kmh 31.49 in1066.4 mb - 0.00 in0.0 mm 0.11 in2.8 mm
03:25 PM 75.9°F24.4°C 72.1°F22.3°C 88% 9.2 mph SW14.8 kmh SW 10.4 mph16.7 kmh 31.49 in1066.4 mb - 0.00 in0.0 mm 0.11 in2.8 mm
03:30 PM 75.8°F24.3°C 72.0°F22.2°C 88% 9.2 mph SSW14.8 kmh SSW 11.5 mph18.5 kmh 31.53 in1067.7 mb - 0.00 in0.0 mm 0.11 in2.8 mm
03:35 PM 75.8°F24.3°C 72.3°F22.4°C 89% 8.1 mph SW13.0 kmh SW 10.4 mph16.7 kmh 31.53 in1067.7 mb - 0.00 in0.0 mm 0.11 in2.8 mm
03:40 PM 75.6°F24.2°C 72.1°F22.3°C 89% 9.2 mph SW14.8 kmh SW 10.4 mph16.7 kmh 31.54 in1068.1 mb - 0.00 in0.0 mm 0.11 in2.8 mm
03:45 PM 75.2°F24.0°C 71.7°F22.1°C 89% 10.4 mph SW16.7 kmh SW 11.5 mph18.5 kmh 31.61 in1070.4 mb - 0.00 in0.0 mm 0.11 in2.8 mm
03:50 PM 75.4°F24.1°C 71.9°F22.2°C 89% 10.4 mph SW16.7 kmh SW 11.5 mph18.5 kmh 31.61 in1070.4 mb - 0.00 in0.0 mm 0.11 in2.8 mm
03:55 PM 75.2°F24.0°C 71.7°F22.1°C 89% 10.4 mph WSW16.7 kmh WSW 11.5 mph18.5 kmh 31.70 in1073.5 mb - 0.00 in0.0 mm 0.11 in2.8 mm
04:00 PM 75.2°F24.0°C 71.7°F22.1°C 89% 10.4 mph SSW16.7 kmh SSW 10.4 mph16.7 kmh 31.70 in1073.5 mb - 0.00 in0.0 mm 0.11 in2.8 mm
04:10 PM 74.9°F23.8°C 71.4°F21.9°C 89% 10.4 mph SW16.7 kmh SW 11.5 mph18.5 kmh 31.73 in1074.5 mb - 0.00 in0.0 mm 0.11 in2.8 mm
04:15 PM 74.8°F23.8°C 71.4°F21.9°C 89% 10.4 mph SW16.7 kmh SW 12.7 mph20.4 kmh 31.73 in1074.5 mb - 0.00 in0.0 mm 0.11 in2.8 mm
04:20 PM 74.9°F23.8°C 71.7°F22.1°C 90% 9.2 mph SSW14.8 kmh SSW 12.7 mph20.4 kmh 31.85 in1078.6 mb - 0.00 in0.0 mm 0.11 in2.8 mm
04:25 PM 74.9°F23.8°C 71.4°F21.9°C 89% 10.4 mph SW16.7 kmh SW 11.5 mph18.5 kmh 31.85 in1078.6 mb - 0.00 in0.0 mm 0.11 in2.8 mm
04:30 PM 75.0°F23.9°C 71.8°F22.1°C 90% 8.1 mph SW13.0 kmh SW 9.2 mph14.8 kmh 31.85 in1078.6 mb - 0.00 in0.0 mm 0.11 in2.8 mm
04:35 PM 75.0°F23.9°C 71.8°F22.1°C 90% 8.1 mph SW13.0 kmh SW 10.4 mph16.7 kmh 31.85 in1078.6 mb - 0.00 in0.0 mm 0.11 in2.8 mm
04:40 PM 74.9°F23.8°C 71.4°F21.9°C 89% 8.1 mph SW13.0 kmh SW 10.4 mph16.7 kmh 31.85 in1078.6 mb - 0.00 in0.0 mm 0.11 in2.8 mm
04:45 PM 74.9°F23.8°C 71.4°F21.9°C 89% 6.9 mph SW11.1 kmh SW 8.1 mph13.0 kmh 31.85 in1078.6 mb - 0.00 in0.0 mm 0.11 in2.8 mm
04:50 PM 75.0°F23.9°C 71.5°F21.9°C 89% 5.8 mph SW9.3 kmh SW 6.9 mph11.1 kmh 31.85 in1078.6 mb - 0.00 in0.0 mm 0.11 in2.8 mm
04:55 PM 75.4°F24.1°C 71.9°F22.2°C 89% 5.8 mph SW9.3 kmh SW 10.4 mph16.7 kmh 31.85 in1078.6 mb - 0.00 in0.0 mm 0.11 in2.8 mm
05:00 PM 75.4°F24.1°C 71.9°F22.2°C 89% 5.8 mph SW9.3 kmh SW 6.9 mph11.1 kmh 31.85 in1078.6 mb - 0.00 in0.0 mm 0.11 in2.8 mm
05:10 PM 74.9°F23.8°C 71.4°F21.9°C 89% 9.2 mph SW14.8 kmh SW 13.8 mph22.2 kmh 31.83 in1077.9 mb - 0.00 in0.0 mm 0.11 in2.8 mm
05:15 PM 74.8°F23.8°C 71.3°F21.8°C 89% 11.5 mph WSW18.5 kmh WSW 11.5 mph18.5 kmh 31.83 in1077.9 mb - 0.00 in0.0 mm 0.11 in2.8 mm
05:20 PM 74.4°F23.6°C 71.3°F21.8°C 90% 10.4 mph SW16.7 kmh SW 11.5 mph18.5 kmh 31.83 in1077.9 mb - 0.00 in0.0 mm 0.11 in2.8 mm
05:25 PM 74.5°F23.6°C 71.4°F21.9°C 90% 11.5 mph SW18.5 kmh SW 13.8 mph22.2 kmh 31.83 in1077.9 mb - 0.00 in0.0 mm 0.11 in2.8 mm
05:30 PM 74.1°F23.4°C 71.3°F21.8°C 91% 9.2 mph SW14.8 kmh SW 11.5 mph18.5 kmh 31.83 in1077.9 mb - 0.00 in0.0 mm 0.11 in2.8 mm
05:35 PM 74.1°F23.4°C 71.0°F21.7°C 90% 8.1 mph S13.0 kmh S 10.4 mph16.7 kmh 31.83 in1077.9 mb - 0.00 in0.0 mm 0.11 in2.8 mm
05:40 PM 74.1°F23.4°C 71.0°F21.7°C 90% 9.2 mph WSW14.8 kmh WSW 10.4 mph16.7 kmh 31.83 in1077.9 mb - 0.00 in0.0 mm 0.11 in2.8 mm
05:45 PM 74.1°F23.4°C 71.3°F21.8°C 91% 8.1 mph SW13.0 kmh SW 10.4 mph16.7 kmh 31.83 in1077.9 mb - 0.00 in0.0 mm 0.11 in2.8 mm
05:50 PM 74.1°F23.4°C 71.3°F21.8°C 91% 9.2 mph SSW14.8 kmh SSW 10.4 mph16.7 kmh 31.83 in1077.9 mb - 0.00 in0.0 mm 0.11 in2.8 mm
05:55 PM 74.0°F23.3°C 71.2°F21.8°C 91% 9.2 mph S14.8 kmh S 11.5 mph18.5 kmh 31.83 in1077.9 mb - 0.00 in0.0 mm 0.11 in2.8 mm
06:00 PM 73.6°F23.1°C 71.1°F21.7°C 92% 9.2 mph SW14.8 kmh SW 9.2 mph14.8 kmh 31.83 in1077.9 mb - 0.00 in0.0 mm 0.11 in2.8 mm
06:10 PM 73.6°F23.1°C 71.1°F21.7°C 92% 8.1 mph WSW13.0 kmh WSW 10.4 mph16.7 kmh 31.83 in1077.9 mb - 0.00 in0.0 mm 0.11 in2.8 mm
06:15 PM 73.5°F23.1°C 71.0°F21.7°C 92% 8.1 mph SW13.0 kmh SW 10.4 mph16.7 kmh 31.83 in1077.9 mb - 0.00 in0.0 mm 0.11 in2.8 mm
06:20 PM 73.4°F23.0°C 70.9°F21.6°C 92% 9.2 mph WSW14.8 kmh WSW 9.2 mph14.8 kmh 31.83 in1077.9 mb - 0.00 in0.0 mm 0.11 in2.8 mm
06:25 PM 73.2°F22.9°C 71.0°F21.7°C 93% 8.1 mph SW13.0 kmh SW 9.2 mph14.8 kmh 31.83 in1077.9 mb - 0.00 in0.0 mm 0.11 in2.8 mm
06:30 PM 73.2°F22.9°C 71.0°F21.7°C 93% 8.1 mph SSW13.0 kmh SSW 9.2 mph14.8 kmh 31.82 in1077.5 mb - 0.00 in0.0 mm 0.11 in2.8 mm
06:35 PM 73.4°F23.0°C 71.2°F21.8°C 93% 6.9 mph SSW11.1 kmh SSW 8.1 mph13.0 kmh 31.82 in1077.5 mb - 0.00 in0.0 mm 0.11 in2.8 mm
06:40 PM 73.6°F23.1°C 71.4°F21.9°C 93% 4.6 mph SSW7.4 kmh SSW 6.9 mph11.1 kmh 31.79 in1076.5 mb - 0.00 in0.0 mm 0.11 in2.8 mm
06:45 PM 73.7°F23.2°C 71.6°F22.0°C 93% 3.5 mph SW5.6 kmh SW 3.5 mph5.6 kmh 31.77 in1075.9 mb - 0.00 in0.0 mm 0.11 in2.8 mm
06:50 PM 73.8°F23.2°C 71.7°F22.1°C 93% 4.6 mph SW7.4 kmh SW 6.9 mph11.1 kmh 31.77 in1075.9 mb - 0.00 in0.0 mm 0.11 in2.8 mm
06:55 PM 73.8°F23.2°C 71.6°F22.0°C 93% 4.6 mph WSW7.4 kmh WSW 5.8 mph9.3 kmh 31.69 in1073.1 mb - 0.00 in0.0 mm 0.11 in2.8 mm
07:00 PM 73.9°F23.3°C 71.7°F22.1°C 93% 4.6 mph S7.4 kmh S 4.6 mph7.4 kmh 31.69 in1073.1 mb - 0.00 in0.0 mm 0.11 in2.8 mm
07:10 PM 73.6°F23.1°C 71.4°F21.9°C 93% 5.8 mph SSW9.3 kmh SSW 5.8 mph9.3 kmh 31.68 in1072.8 mb - 0.00 in0.0 mm 0.11 in2.8 mm
07:15 PM 73.6°F23.1°C 71.5°F21.9°C 93% 4.6 mph SW7.4 kmh SW 5.8 mph9.3 kmh 31.68 in1072.8 mb - 0.00 in0.0 mm 0.11 in2.8 mm
07:20 PM 73.9°F23.3°C 71.8°F22.1°C 93% 4.6 mph SSW7.4 kmh SSW 5.8 mph9.3 kmh 31.81 in1077.2 mb - 0.00 in0.0 mm 0.11 in2.8 mm
07:25 PM 74.5°F23.6°C 72.0°F22.2°C 92% 1.2 mph E1.9 kmh E 3.5 mph5.6 kmh 31.81 in1077.2 mb - 0.00 in0.0 mm 0.11 in2.8 mm
07:30 PM 74.5°F23.6°C 72.0°F22.2°C 92% 3.5 mph NW5.6 kmh NW 5.8 mph9.3 kmh 31.82 in1077.5 mb - 0.00 in0.0 mm 0.11 in2.8 mm
07:35 PM 74.2°F23.4°C 71.7°F22.1°C 92% 5.8 mph WSW9.3 kmh WSW 6.9 mph11.1 kmh 31.82 in1077.5 mb - 0.00 in0.0 mm 0.11 in2.8 mm
07:40 PM 73.7°F23.2°C 71.5°F21.9°C 93% 4.6 mph SW7.4 kmh SW 6.9 mph11.1 kmh 31.82 in1077.5 mb - 0.00 in0.0 mm 0.11 in2.8 mm
07:45 PM 73.9°F23.3°C 71.7°F22.1°C 93% 3.5 mph WNW5.6 kmh WNW 2.3 mph3.7 kmh 31.84 in1078.2 mb - 0.00 in0.0 mm 0.11 in2.8 mm
07:50 PM 73.7°F23.2°C 71.5°F21.9°C 93% 3.5 mph NW5.6 kmh NW 4.6 mph7.4 kmh 31.84 in1078.2 mb - 0.00 in0.0 mm 0.11 in2.8 mm
07:55 PM 73.2°F22.9°C 71.3°F21.8°C 94% 3.5 mph ENE5.6 kmh ENE 2.3 mph3.7 kmh 31.84 in1078.2 mb - 0.00 in0.0 mm 0.11 in2.8 mm
08:00 PM 74.4°F23.6°C 71.9°F22.2°C 92% 3.5 mph SW5.6 kmh SW 5.8 mph9.3 kmh 31.84 in1078.2 mb - 0.00 in0.0 mm 0.11 in2.8 mm
08:10 PM 73.3°F22.9°C 70.9°F21.6°C 92% 3.5 mph SW5.6 kmh SW 6.9 mph11.1 kmh 31.84 in1078.2 mb - 0.00 in0.0 mm 0.11 in2.8 mm
08:15 PM 72.8°F22.7°C 71.0°F21.7°C 94% 3.5 mph WNW5.6 kmh WNW 4.6 mph7.4 kmh 31.84 in1078.2 mb - 0.00 in0.0 mm 0.11 in2.8 mm
08:20 PM 72.5°F22.5°C 70.7°F21.5°C 94% 3.5 mph W5.6 kmh W 3.5 mph5.6 kmh 31.84 in1078.2 mb - 0.00 in0.0 mm 0.11 in2.8 mm
08:25 PM 72.2°F22.3°C 70.7°F21.5°C 95% 3.5 mph WSW5.6 kmh WSW 6.9 mph11.1 kmh 31.84 in1078.2 mb - 0.00 in0.0 mm 0.11 in2.8 mm
08:30 PM 71.8°F22.1°C 70.6°F21.4°C 96% 4.6 mph SSW7.4 kmh SSW 6.9 mph11.1 kmh 31.84 in1078.2 mb - 0.00 in0.0 mm 0.11 in2.8 mm
08:35 PM 71.6°F22.0°C 70.4°F21.3°C 96% 2.3 mph WSW3.7 kmh WSW 5.8 mph9.3 kmh 31.84 in1078.2 mb - 0.00 in0.0 mm 0.11 in2.8 mm
08:40 PM 71.4°F21.9°C 70.5°F21.4°C 97% 3.5 mph W5.6 kmh W 4.6 mph7.4 kmh 31.84 in1078.2 mb - 0.00 in0.0 mm 0.11 in2.8 mm
08:45 PM 71.3°F21.8°C 70.4°F21.3°C 97% 3.5 mph W5.6 kmh W 4.6 mph7.4 kmh 31.84 in1078.2 mb - 0.00 in0.0 mm 0.11 in2.8 mm
08:50 PM 71.3°F21.8°C 70.4°F21.3°C 97% 2.3 mph WSW3.7 kmh WSW 3.5 mph5.6 kmh 31.84 in1078.2 mb - 0.00 in0.0 mm 0.11 in2.8 mm
08:55 PM 70.9°F21.6°C 70.0°F21.1°C 97% 3.5 mph WSW5.6 kmh WSW 9.2 mph14.8 kmh 31.84 in1078.2 mb - 0.00 in0.0 mm 0.11 in2.8 mm
09:00 PM 70.9°F21.6°C 70.3°F21.3°C 98% 3.5 mph WSW5.6 kmh WSW 4.6 mph7.4 kmh 31.84 in1078.2 mb - 0.00 in0.0 mm 0.11 in2.8 mm
09:10 PM 70.7°F21.5°C 70.1°F21.2°C 98% 2.3 mph ENE3.7 kmh ENE 3.5 mph5.6 kmh 31.84 in1078.2 mb - 0.00 in0.0 mm 0.11 in2.8 mm
09:15 PM 70.5°F21.4°C 69.9°F21.1°C 98% 2.3 mph E3.7 kmh E 4.6 mph7.4 kmh 31.84 in1078.2 mb - 0.00 in0.0 mm 0.11 in2.8 mm
09:20 PM 70.5°F21.4°C 70.2°F21.2°C 99% 2.3 mph N3.7 kmh N 3.5 mph5.6 kmh 31.84 in1078.2 mb - 0.00 in0.0 mm 0.11 in2.8 mm
09:25 PM 70.4°F21.3°C 70.1°F21.2°C 99% 2.3 mph N3.7 kmh N 2.3 mph3.7 kmh 31.84 in1078.2 mb - 0.00 in0.0 mm 0.11 in2.8 mm
09:30 PM 70.2°F21.2°C 69.9°F21.1°C 99% 1.2 mph E1.9 kmh E 4.6 mph7.4 kmh 31.84 in1078.2 mb - 0.00 in0.0 mm 0.11 in2.8 mm
09:35 PM 70.2°F21.2°C 69.9°F21.1°C 99% 2.3 mph E3.7 kmh E 2.3 mph3.7 kmh 31.84 in1078.2 mb - 0.00 in0.0 mm 0.11 in2.8 mm
09:40 PM 70.0°F21.1°C 69.7°F20.9°C 99% 1.2 mph ENE1.9 kmh ENE 2.3 mph3.7 kmh 31.84 in1078.2 mb - 0.00 in0.0 mm 0.11 in2.8 mm
09:45 PM 70.0°F21.1°C 69.7°F20.9°C 99% 2.3 mph WNW3.7 kmh WNW 2.3 mph3.7 kmh 31.84 in1078.2 mb - 0.00 in0.0 mm 0.11 in2.8 mm
09:50 PM 70.0°F21.1°C 69.7°F20.9°C 99% 3.5 mph N5.6 kmh N 5.8 mph9.3 kmh 31.84 in1078.2 mb - 0.00 in0.0 mm 0.11 in2.8 mm
09:55 PM 70.0°F21.1°C 69.7°F20.9°C 99% 3.5 mph WSW5.6 kmh WSW 5.8 mph9.3 kmh 31.84 in1078.2 mb - 0.00 in0.0 mm 0.11 in2.8 mm
10:00 PM 70.0°F21.1°C 69.7°F20.9°C 99% 2.3 mph WNW3.7 kmh WNW 3.5 mph5.6 kmh 31.84 in1078.2 mb - 0.00 in0.0 mm 0.11 in2.8 mm
10:10 PM 70.0°F21.1°C 69.7°F20.9°C 99% 3.5 mph N5.6 kmh N 4.6 mph7.4 kmh 31.84 in1078.2 mb - 0.00 in0.0 mm 0.11 in2.8 mm
10:15 PM 70.0°F21.1°C 69.7°F20.9°C 99% 3.5 mph WSW5.6 kmh WSW 8.1 mph13.0 kmh 31.84 in1078.2 mb - 0.00 in0.0 mm 0.11 in2.8 mm
10:20 PM 70.0°F21.1°C 69.7°F20.9°C 99% 3.5 mph NNE5.6 kmh NNE 4.6 mph7.4 kmh 31.84 in1078.2 mb - 0.00 in0.0 mm 0.11 in2.8 mm
10:25 PM 70.0°F21.1°C 69.7°F20.9°C 99% 3.5 mph N5.6 kmh N 3.5 mph5.6 kmh 31.84 in1078.2 mb - 0.00 in0.0 mm 0.11 in2.8 mm
10:30 PM 70.0°F21.1°C 69.7°F20.9°C 99% 2.3 mph N3.7 kmh N 2.3 mph3.7 kmh 31.84 in1078.2 mb - 0.00 in0.0 mm 0.11 in2.8 mm
10:35 PM 69.9°F21.1°C 69.6°F20.9°C 99% 2.3 mph NNW3.7 kmh NNW 3.5 mph5.6 kmh 31.84 in1078.2 mb - 0.00 in0.0 mm 0.11 in2.8 mm
10:40 PM 69.8°F21.0°C 69.5°F20.8°C 99% 1.2 mph N1.9 kmh N 3.5 mph5.6 kmh 31.84 in1078.2 mb - 0.00 in0.0 mm 0.11 in2.8 mm
10:45 PM 69.8°F21.0°C 69.2°F20.7°C 98% 1.2 mph E1.9 kmh E 1.2 mph1.9 kmh 31.84 in1078.2 mb - 0.00 in0.0 mm 0.11 in2.8 mm
10:50 PM 69.8°F21.0°C 69.5°F20.8°C 99% 1.2 mph SSW1.9 kmh SSW 1.2 mph1.9 kmh 31.84 in1078.2 mb - 0.00 in0.0 mm 0.11 in2.8 mm
10:55 PM 69.5°F20.8°C 69.2°F20.7°C 99% Calm Calm 1.2 mph1.9 kmh 31.84 in1078.2 mb - 0.00 in0.0 mm 0.11 in2.8 mm
11:00 PM 69.5°F20.8°C 69.2°F20.7°C 99% Calm Calm -- 31.84 in1078.2 mb - 0.00 in0.0 mm 0.11 in2.8 mm
11:10 PM 69.1°F20.6°C 68.8°F20.4°C 99% Calm Calm 2.3 mph3.7 kmh 31.84 in1078.2 mb - 0.00 in0.0 mm 0.11 in2.8 mm
11:15 PM 68.9°F20.5°C 68.6°F20.3°C 99% 1.2 mph NE1.9 kmh NE 1.2 mph1.9 kmh 31.84 in1078.2 mb - 0.00 in0.0 mm 0.11 in2.8 mm
11:20 PM 68.9°F20.5°C 68.6°F20.3°C 99% 2.3 mph NE3.7 kmh NE 2.3 mph3.7 kmh 31.84 in1078.2 mb - 0.00 in0.0 mm 0.11 in2.8 mm
11:25 PM 68.9°F20.5°C 68.6°F20.3°C 99% 2.3 mph S3.7 kmh S 1.2 mph1.9 kmh 31.84 in1078.2 mb - 0.00 in0.0 mm 0.11 in2.8 mm
11:30 PM 68.7°F20.4°C 68.4°F20.2°C 99% Calm Calm 2.3 mph3.7 kmh 31.84 in1078.2 mb - 0.00 in0.0 mm 0.11 in2.8 mm
11:35 PM 68.6°F20.3°C 68.3°F20.2°C 99% 2.3 mph SE3.7 kmh SE 2.3 mph3.7 kmh 31.84 in1078.2 mb - 0.00 in0.0 mm 0.11 in2.8 mm
11:40 PM 68.6°F20.3°C 68.3°F20.2°C 99% Calm Calm 1.2 mph1.9 kmh 31.84 in1078.2 mb - 0.00 in0.0 mm 0.11 in2.8 mm
11:45 PM 68.4°F20.2°C 68.1°F20.1°C 99% 1.2 mph SE1.9 kmh SE 1.2 mph1.9 kmh 31.84 in1078.2 mb - 0.00 in0.0 mm 0.11 in2.8 mm
11:50 PM 68.4°F20.2°C 68.1°F20.1°C 99% Calm Calm 2.3 mph3.7 kmh 31.84 in1078.2 mb - 0.00 in0.0 mm 0.11 in2.8 mm
11:55 PM 68.4°F20.2°C 68.1°F20.1°C 99% Calm Calm -- 31.84 in1078.2 mb - 0.00 in0.0 mm 0.11 in2.8 mm